CDU6 weather

Doaktown Airport
Doaktown, New Brunswick, Canada

Public forecast

Using degrees Celsius for public forecast. Weather courtesy of forecast.io.

METAR (pilot weather report)

Closest report is Fredericton Airport, 45.0 nm (83.3 km) SSW. Retrieved 2019/08/23 23:00 UTC (43 minutes ago):

CYFC 232300Z AUTO 27006KT 9SM SCT075 20/11 A2985 RMK SLP111 DENSITY ALT 600FT

TAF (pilot weather forecast)

Closest forecast is Fredericton Airport, 45.0 nm (83.3 km) SSW. Retrieved 2019/08/23 18:42 UTC (5 hours ago):

TAF CYFC 231738Z 2318/2406 29008KT P6SM SCT050 TEMPO 2320/2324 BKN050 RMK FCST BASED ON AUTO OBS. NXT FCST BY 240000Z